sensor_id;sensor_type;location;lat;lon;timestamp;temperature;humidity
77741;DHT22;66919;51.006;4.630;2024-02-23T00:00:34;6.00;82.50
77741;DHT22;66919;51.006;4.630;2024-02-23T00:03:00;6.10;82.60
77741;DHT22;66919;51.006;4.630;2024-02-23T00:05:25;6.10;82.20
77741;DHT22;66919;51.006;4.630;2024-02-23T00:07:51;6.20;82.70
77741;DHT22;66919;51.006;4.630;2024-02-23T00:10:16;6.10;82.60
77741;DHT22;66919;51.006;4.630;2024-02-23T00:12:42;6.20;82.70
77741;DHT22;66919;51.006;4.630;2024-02-23T00:15:10;6.10;83.30
77741;DHT22;66919;51.006;4.630;2024-02-23T00:17:35;6.10;83.20
77741;DHT22;66919;51.006;4.630;2024-02-23T00:20:01;6.10;83.10
77741;DHT22;66919;51.006;4.630;2024-02-23T00:22:27;6.10;83.60
77741;DHT22;66919;51.006;4.630;2024-02-23T00:24:52;6.10;83.30
77741;DHT22;66919;51.006;4.630;2024-02-23T00:27:18;6.10;83.30
77741;DHT22;66919;51.006;4.630;2024-02-23T00:29:43;6.20;82.70
77741;DHT22;66919;51.006;4.630;2024-02-23T00:32:09;6.10;82.70
77741;DHT22;66919;51.006;4.630;2024-02-23T00:34:35;6.10;82.70
77741;DHT22;66919;51.006;4.630;2024-02-23T00:37:01;6.00;82.60
77741;DHT22;66919;51.006;4.630;2024-02-23T00:39:27;6.00;82.50
77741;DHT22;66919;51.006;4.630;2024-02-23T00:41:53;6.00;81.90
77741;DHT22;66919;51.006;4.630;2024-02-23T00:44:18;6.00;82.30
77741;DHT22;66919;51.006;4.630;2024-02-23T00:46:44;6.10;81.00
77741;DHT22;66919;51.006;4.630;2024-02-23T00:49:09;6.10;80.80
77741;DHT22;66919;51.006;4.630;2024-02-23T00:51:35;6.10;81.10
77741;DHT22;66919;51.006;4.630;2024-02-23T00:54:00;6.10;80.30
77741;DHT22;66919;51.006;4.630;2024-02-23T00:56:26;6.10;80.00
77741;DHT22;66919;51.006;4.630;2024-02-23T00:58:53;6.00;80.70
77741;DHT22;66919;51.006;4.630;2024-02-23T01:01:18;5.90;81.10
77741;DHT22;66919;51.006;4.630;2024-02-23T01:03:44;5.90;81.30
77741;DHT22;66919;51.006;4.630;2024-02-23T01:06:09;5.90;81.70
77741;DHT22;66919;51.006;4.630;2024-02-23T01:08:35;5.90;81.90
77741;DHT22;66919;51.006;4.630;2024-02-23T01:11:01;5.80;82.40
77741;DHT22;66919;51.006;4.630;2024-02-23T01:13:27;5.70;83.30
77741;DHT22;66919;51.006;4.630;2024-02-23T01:15:52;5.70;83.60
77741;DHT22;66919;51.006;4.630;2024-02-23T01:18:19;5.70;84.10
77741;DHT22;66919;51.006;4.630;2024-02-23T01:20:45;5.70;84.20
77741;DHT22;66919;51.006;4.630;2024-02-23T01:23:11;5.60;84.40
77741;DHT22;66919;51.006;4.630;2024-02-23T01:25:36;5.70;84.80
77741;DHT22;66919;51.006;4.630;2024-02-23T01:28:03;5.60;85.20
77741;DHT22;66919;51.006;4.630;2024-02-23T01:30:28;5.60;85.20
77741;DHT22;66919;51.006;4.630;2024-02-23T01:32:54;5.50;85.50
77741;DHT22;66919;51.006;4.630;2024-02-23T01:35:19;5.50;85.30
77741;DHT22;66919;51.006;4.630;2024-02-23T01:37:45;5.60;85.10
77741;DHT22;66919;51.006;4.630;2024-02-23T01:40:11;5.50;85.50
77741;DHT22;66919;51.006;4.630;2024-02-23T01:42:36;5.60;85.30
77741;DHT22;66919;51.006;4.630;2024-02-23T01:45:02;5.50;85.10
77741;DHT22;66919;51.006;4.630;2024-02-23T01:47:29;5.50;85.50
77741;DHT22;66919;51.006;4.630;2024-02-23T01:49:56;5.50;85.20
77741;DHT22;66919;51.006;4.630;2024-02-23T01:52:23;5.60;85.20
77741;DHT22;66919;51.006;4.630;2024-02-23T01:54:48;5.50;85.00
77741;DHT22;66919;51.006;4.630;2024-02-23T01:57:15;5.50;85.00
77741;DHT22;66919;51.006;4.630;2024-02-23T01:59:41;5.60;84.70
77741;DHT22;66919;51.006;4.630;2024-02-23T02:02:06;5.60;84.60
77741;DHT22;66919;51.006;4.630;2024-02-23T02:04:32;5.50;84.60
77741;DHT22;66919;51.006;4.630;2024-02-23T02:06:59;5.60;84.00
77741;DHT22;66919;51.006;4.630;2024-02-23T02:09:26;5.60;83.70
77741;DHT22;66919;51.006;4.630;2024-02-23T02:11:52;5.60;83.80
77741;DHT22;66919;51.006;4.630;2024-02-23T02:14:18;5.60;84.00
77741;DHT22;66919;51.006;4.630;2024-02-23T02:16:44;5.70;83.50
77741;DHT22;66919;51.006;4.630;2024-02-23T02:19:14;5.60;83.90
77741;DHT22;66919;51.006;4.630;2024-02-23T02:21:40;5.80;83.70
77741;DHT22;66919;51.006;4.630;2024-02-23T02:24:07;5.80;84.00
77741;DHT22;66919;51.006;4.630;2024-02-23T02:26:32;5.70;84.10
77741;DHT22;66919;51.006;4.630;2024-02-23T02:28:58;5.70;84.50
77741;DHT22;66919;51.006;4.630;2024-02-23T02:31:24;5.50;85.30
77741;DHT22;66919;51.006;4.630;2024-02-23T02:33:50;5.50;86.00
77741;DHT22;66919;51.006;4.630;2024-02-23T02:36:15;5.50;86.00
77741;DHT22;66919;51.006;4.630;2024-02-23T02:38:41;5.50;85.90
77741;DHT22;66919;51.006;4.630;2024-02-23T02:41:06;5.60;85.50
77741;DHT22;66919;51.006;4.630;2024-02-23T02:43:32;5.60;85.20
77741;DHT22;66919;51.006;4.630;2024-02-23T02:45:58;5.60;85.10
77741;DHT22;66919;51.006;4.630;2024-02-23T02:48:24;5.70;84.40
77741;DHT22;66919;51.006;4.630;2024-02-23T02:50:50;5.80;84.00
77741;DHT22;66919;51.006;4.630;2024-02-23T02:53:16;5.70;84.20
77741;DHT22;66919;51.006;4.630;2024-02-23T02:55:43;5.70;84.00
77741;DHT22;66919;51.006;4.630;2024-02-23T02:58:09;5.70;84.00
77741;DHT22;66919;51.006;4.630;2024-02-23T03:00:34;5.80;83.90
77741;DHT22;66919;51.006;4.630;2024-02-23T03:03:00;5.80;83.30
77741;DHT22;66919;51.006;4.630;2024-02-23T03:05:26;5.80;83.70
77741;DHT22;66919;51.006;4.630;2024-02-23T03:07:52;5.90;83.30
77741;DHT22;66919;51.006;4.630;2024-02-23T03:10:17;6.00;82.70
77741;DHT22;66919;51.006;4.630;2024-02-23T03:12:43;6.00;82.60
77741;DHT22;66919;51.006;4.630;2024-02-23T03:15:09;6.10;82.20
77741;DHT22;66919;51.006;4.630;2024-02-23T03:17:35;6.10;81.50
77741;DHT22;66919;51.006;4.630;2024-02-23T03:20:02;6.10;82.00
77741;DHT22;66919;51.006;4.630;2024-02-23T03:22:31;6.10;81.20
77741;DHT22;66919;51.006;4.630;2024-02-23T03:24:56;6.20;81.50
77741;DHT22;66919;51.006;4.630;2024-02-23T03:27:28;6.20;81.10
77741;DHT22;66919;51.006;4.630;2024-02-23T03:29:54;6.30;80.70
77741;DHT22;66919;51.006;4.630;2024-02-23T03:32:20;6.30;81.10
77741;DHT22;66919;51.006;4.630;2024-02-23T03:34:45;6.20;80.70
77741;DHT22;66919;51.006;4.630;2024-02-23T03:37:11;6.30;80.60
77741;DHT22;66919;51.006;4.630;2024-02-23T03:39:36;6.30;80.10
77741;DHT22;66919;51.006;4.630;2024-02-23T03:42:04;6.30;80.20
77741;DHT22;66919;51.006;4.630;2024-02-23T03:44:29;6.20;80.60
77741;DHT22;66919;51.006;4.630;2024-02-23T03:46:56;6.30;80.30
77741;DHT22;66919;51.006;4.630;2024-02-23T03:49:22;6.20;80.80
77741;DHT22;66919;51.006;4.630;2024-02-23T03:51:48;6.10;81.20
77741;DHT22;66919;51.006;4.630;2024-02-23T03:54:13;6.20;80.80
77741;DHT22;66919;51.006;4.630;2024-02-23T03:56:40;6.30;80.80
77741;DHT22;66919;51.006;4.630;2024-02-23T03:59:06;6.40;80.10
77741;DHT22;66919;51.006;4.630;2024-02-23T04:01:35;6.30;80.90
77741;DHT22;66919;51.006;4.630;2024-02-23T04:04:01;6.20;80.70
77741;DHT22;66919;51.006;4.630;2024-02-23T04:06:27;6.30;81.00
77741;DHT22;66919;51.006;4.630;2024-02-23T04:08:52;6.40;79.90
77741;DHT22;66919;51.006;4.630;2024-02-23T04:11:18;6.50;79.90
77741;DHT22;66919;51.006;4.630;2024-02-23T04:13:43;6.50;79.40
77741;DHT22;66919;51.006;4.630;2024-02-23T04:16:09;6.40;79.90
77741;DHT22;66919;51.006;4.630;2024-02-23T04:18:35;6.50;79.90
77741;DHT22;66919;51.006;4.630;2024-02-23T04:21:00;6.50;79.40
77741;DHT22;66919;51.006;4.630;2024-02-23T04:23:26;6.70;78.90
77741;DHT22;66919;51.006;4.630;2024-02-23T04:25:51;6.60;79.30
77741;DHT22;66919;51.006;4.630;2024-02-23T04:28:17;6.50;79.60
77741;DHT22;66919;51.006;4.630;2024-02-23T04:30:43;6.60;79.70
77741;DHT22;66919;51.006;4.630;2024-02-23T04:33:08;6.60;79.20
77741;DHT22;66919;51.006;4.630;2024-02-23T04:35:34;6.50;79.30
77741;DHT22;66919;51.006;4.630;2024-02-23T04:37:59;6.60;79.40
77741;DHT22;66919;51.006;4.630;2024-02-23T04:40:25;6.70;79.20
77741;DHT22;66919;51.006;4.630;2024-02-23T04:42:51;6.60;79.40
77741;DHT22;66919;51.006;4.630;2024-02-23T04:45:16;6.50;79.60
77741;DHT22;66919;51.006;4.630;2024-02-23T04:47:42;6.70;79.30
77741;DHT22;66919;51.006;4.630;2024-02-23T04:50:08;6.70;78.70
77741;DHT22;66919;51.006;4.630;2024-02-23T04:52:34;6.70;78.80
77741;DHT22;66919;51.006;4.630;2024-02-23T04:55:00;6.60;78.60
77741;DHT22;66919;51.006;4.630;2024-02-23T04:57:26;6.40;79.50
77741;DHT22;66919;51.006;4.630;2024-02-23T04:59:51;6.50;79.20
77741;DHT22;66919;51.006;4.630;2024-02-23T05:02:17;6.50;78.60
77741;DHT22;66919;51.006;4.630;2024-02-23T05:04:43;6.30;79.70
77741;DHT22;66919;51.006;4.630;2024-02-23T05:07:08;6.40;78.90
77741;DHT22;66919;51.006;4.630;2024-02-23T05:09:34;6.50;78.70
77741;DHT22;66919;51.006;4.630;2024-02-23T05:12:00;6.50;78.20
77741;DHT22;66919;51.006;4.630;2024-02-23T05:14:26;6.50;77.60
77741;DHT22;66919;51.006;4.630;2024-02-23T05:16:52;6.50;78.00
77741;DHT22;66919;51.006;4.630;2024-02-23T05:19:17;6.50;77.60
77741;DHT22;66919;51.006;4.630;2024-02-23T05:21:43;6.60;77.80
77741;DHT22;66919;51.006;4.630;2024-02-23T05:24:10;6.50;78.10
77741;DHT22;66919;51.006;4.630;2024-02-23T05:26:36;6.60;77.90
77741;DHT22;66919;51.006;4.630;2024-02-23T05:29:01;6.60;77.70
77741;DHT22;66919;51.006;4.630;2024-02-23T05:31:48;6.70;76.90
77741;DHT22;66919;51.006;4.630;2024-02-23T05:34:14;6.70;77.00
77741;DHT22;66919;51.006;4.630;2024-02-23T05:36:40;6.60;77.60
77741;DHT22;66919;51.006;4.630;2024-02-23T05:39:05;6.60;77.60
77741;DHT22;66919;51.006;4.630;2024-02-23T05:41:33;6.50;77.40
77741;DHT22;66919;51.006;4.630;2024-02-23T05:43:59;6.50;78.10
77741;DHT22;66919;51.006;4.630;2024-02-23T05:46:24;6.50;78.30
77741;DHT22;66919;51.006;4.630;2024-02-23T05:48:50;6.50;77.80
77741;DHT22;66919;51.006;4.630;2024-02-23T05:51:15;6.60;77.40
77741;DHT22;66919;51.006;4.630;2024-02-23T05:53:41;6.60;77.10
77741;DHT22;66919;51.006;4.630;2024-02-23T05:56:07;6.60;76.70
77741;DHT22;66919;51.006;4.630;2024-02-23T05:58:33;6.60;77.10
77741;DHT22;66919;51.006;4.630;2024-02-23T06:00:58;6.60;77.00
77741;DHT22;66919;51.006;4.630;2024-02-23T06:03:24;6.60;77.00
77741;DHT22;66919;51.006;4.630;2024-02-23T06:05:50;6.50;77.90
77741;DHT22;66919;51.006;4.630;2024-02-23T06:08:15;6.50;77.00
77741;DHT22;66919;51.006;4.630;2024-02-23T06:10:41;6.60;76.50
77741;DHT22;66919;51.006;4.630;2024-02-23T06:13:08;6.60;75.90
77741;DHT22;66919;51.006;4.630;2024-02-23T06:15:34;6.60;76.80
77741;DHT22;66919;51.006;4.630;2024-02-23T06:17:59;6.50;77.10
77741;DHT22;66919;51.006;4.630;2024-02-23T06:20:25;6.60;76.50
77741;DHT22;66919;51.006;4.630;2024-02-23T06:22:50;6.70;75.20
77741;DHT22;66919;51.006;4.630;2024-02-23T06:25:16;6.70;75.90
77741;DHT22;66919;51.006;4.630;2024-02-23T06:27:42;6.70;75.90
77741;DHT22;66919;51.006;4.630;2024-02-23T06:30:08;6.70;75.70
77741;DHT22;66919;51.006;4.630;2024-02-23T06:32:33;6.70;75.90
77741;DHT22;66919;51.006;4.630;2024-02-23T06:34:59;6.70;75.90
77741;DHT22;66919;51.006;4.630;2024-02-23T06:37:25;6.60;75.90
77741;DHT22;66919;51.006;4.630;2024-02-23T06:39:50;6.60;76.30
77741;DHT22;66919;51.006;4.630;2024-02-23T06:42:20;6.50;77.10
77741;DHT22;66919;51.006;4.630;2024-02-23T06:44:46;6.60;76.60
77741;DHT22;66919;51.006;4.630;2024-02-23T06:47:12;6.70;76.80
77741;DHT22;66919;51.006;4.630;2024-02-23T06:49:41;6.80;75.90
77741;DHT22;66919;51.006;4.630;2024-02-23T06:52:08;6.80;75.70
77741;DHT22;66919;51.006;4.630;2024-02-23T06:54:33;6.60;76.40
77741;DHT22;66919;51.006;4.630;2024-02-23T06:56:59;6.70;76.10
77741;DHT22;66919;51.006;4.630;2024-02-23T06:59:24;6.70;76.60
77741;DHT22;66919;51.006;4.630;2024-02-23T07:01:51;6.70;76.70
77741;DHT22;66919;51.006;4.630;2024-02-23T07:04:16;6.80;76.70
77741;DHT22;66919;51.006;4.630;2024-02-23T07:06:42;6.80;75.90
77741;DHT22;66919;51.006;4.630;2024-02-23T07:09:08;6.90;75.60
77741;DHT22;66919;51.006;4.630;2024-02-23T07:11:34;6.90;75.20
77741;DHT22;66919;51.006;4.630;2024-02-23T07:14:00;6.90;75.70
77741;DHT22;66919;51.006;4.630;2024-02-23T07:16:25;7.00;74.80
77741;DHT22;66919;51.006;4.630;2024-02-23T07:18:51;7.00;75.80
77741;DHT22;66919;51.006;4.630;2024-02-23T07:21:17;7.00;75.50
77741;DHT22;66919;51.006;4.630;2024-02-23T07:23:43;7.00;75.40
77741;DHT22;66919;51.006;4.630;2024-02-23T07:26:09;7.00;75.10
77741;DHT22;66919;51.006;4.630;2024-02-23T07:28:34;6.90;75.90
77741;DHT22;66919;51.006;4.630;2024-02-23T07:31:00;6.90;76.00
77741;DHT22;66919;51.006;4.630;2024-02-23T07:33:25;7.00;75.50
77741;DHT22;66919;51.006;4.630;2024-02-23T07:35:51;7.00;75.40
77741;DHT22;66919;51.006;4.630;2024-02-23T07:38:16;7.00;75.90
77741;DHT22;66919;51.006;4.630;2024-02-23T07:40:44;7.00;75.80
77741;DHT22;66919;51.006;4.630;2024-02-23T07:43:09;7.00;75.80
77741;DHT22;66919;51.006;4.630;2024-02-23T07:45:38;7.00;76.00
77741;DHT22;66919;51.006;4.630;2024-02-23T07:48:04;7.00;75.70
77741;DHT22;66919;51.006;4.630;2024-02-23T07:50:30;7.10;75.70
77741;DHT22;66919;51.006;4.630;2024-02-23T07:52:55;7.20;75.60
77741;DHT22;66919;51.006;4.630;2024-02-23T07:55:21;7.40;74.80
77741;DHT22;66919;51.006;4.630;2024-02-23T07:57:47;7.50;74.00
77741;DHT22;66919;51.006;4.630;2024-02-23T08:00:13;7.40;73.70
77741;DHT22;66919;51.006;4.630;2024-02-23T08:02:39;7.30;74.20
77741;DHT22;66919;51.006;4.630;2024-02-23T08:05:08;7.50;74.50
77741;DHT22;66919;51.006;4.630;2024-02-23T08:07:35;7.50;74.30
77741;DHT22;66919;51.006;4.630;2024-02-23T08:10:01;7.60;73.60
77741;DHT22;66919;51.006;4.630;2024-02-23T08:12:28;7.50;74.50
77741;DHT22;66919;51.006;4.630;2024-02-23T08:14:54;7.60;74.40
77741;DHT22;66919;51.006;4.630;2024-02-23T08:17:21;7.60;74.30
77741;DHT22;66919;51.006;4.630;2024-02-23T08:19:47;7.60;74.40
77741;DHT22;66919;51.006;4.630;2024-02-23T08:22:12;7.50;75.20
77741;DHT22;66919;51.006;4.630;2024-02-23T08:24:38;7.60;74.70
77741;DHT22;66919;51.006;4.630;2024-02-23T08:27:04;7.70;74.40
77741;DHT22;66919;51.006;4.630;2024-02-23T08:29:30;7.60;74.40
77741;DHT22;66919;51.006;4.630;2024-02-23T08:31:55;7.60;76.20
77741;DHT22;66919;51.006;4.630;2024-02-23T08:34:21;7.50;77.20
77741;DHT22;66919;51.006;4.630;2024-02-23T08:36:46;7.40;78.40
77741;DHT22;66919;51.006;4.630;2024-02-23T08:39:12;7.20;79.10
77741;DHT22;66919;51.006;4.630;2024-02-23T08:41:38;7.00;80.80
77741;DHT22;66919;51.006;4.630;2024-02-23T08:44:04;6.90;81.60
77741;DHT22;66919;51.006;4.630;2024-02-23T08:46:30;6.90;82.10
77741;DHT22;66919;51.006;4.630;2024-02-23T08:48:55;6.70;83.10
77741;DHT22;66919;51.006;4.630;2024-02-23T08:51:21;6.70;84.20
77741;DHT22;66919;51.006;4.630;2024-02-23T08:53:46;6.40;85.10
77741;DHT22;66919;51.006;4.630;2024-02-23T08:56:12;6.30;87.00
77741;DHT22;66919;51.006;4.630;2024-02-23T08:58:38;6.20;87.90
77741;DHT22;66919;51.006;4.630;2024-02-23T09:01:04;6.20;89.00
77741;DHT22;66919;51.006;4.630;2024-02-23T09:03:30;6.30;89.90
77741;DHT22;66919;51.006;4.630;2024-02-23T09:05:57;6.20;89.50
77741;DHT22;66919;51.006;4.630;2024-02-23T09:08:22;6.20;90.60
77741;DHT22;66919;51.006;4.630;2024-02-23T09:10:48;6.40;90.30
77741;DHT22;66919;51.006;4.630;2024-02-23T09:13:14;6.30;89.50
77741;DHT22;66919;51.006;4.630;2024-02-23T09:15:40;6.30;90.10
77741;DHT22;66919;51.006;4.630;2024-02-23T09:18:07;6.20;90.10
77741;DHT22;66919;51.006;4.630;2024-02-23T09:20:33;6.30;89.40
77741;DHT22;66919;51.006;4.630;2024-02-23T09:22:59;6.50;88.90
77741;DHT22;66919;51.006;4.630;2024-02-23T09:25:25;6.50;88.40
77741;DHT22;66919;51.006;4.630;2024-02-23T09:27:51;6.50;88.40
77741;DHT22;66919;51.006;4.630;2024-02-23T09:30:16;6.50;88.50
77741;DHT22;66919;51.006;4.630;2024-02-23T09:32:42;6.50;88.20
77741;DHT22;66919;51.006;4.630;2024-02-23T09:35:09;6.50;88.10
77741;DHT22;66919;51.006;4.630;2024-02-23T09:37:35;6.60;87.30
77741;DHT22;66919;51.006;4.630;2024-02-23T09:40:01;6.70;88.10
77741;DHT22;66919;51.006;4.630;2024-02-23T09:42:28;6.90;86.20
77741;DHT22;66919;51.006;4.630;2024-02-23T09:44:58;7.10;86.10
77741;DHT22;66919;51.006;4.630;2024-02-23T09:47:27;7.30;84.60
77741;DHT22;66919;51.006;4.630;2024-02-23T09:49:54;7.40;83.30
77741;DHT22;66919;51.006;4.630;2024-02-23T09:52:21;7.40;83.60
77741;DHT22;66919;51.006;4.630;2024-02-23T09:54:47;7.60;82.40
77741;DHT22;66919;51.006;4.630;2024-02-23T09:57:14;7.70;80.80
77741;DHT22;66919;51.006;4.630;2024-02-23T09:59:41;7.90;80.60
77741;DHT22;66919;51.006;4.630;2024-02-23T10:02:15;8.00;80.10
77741;DHT22;66919;51.006;4.630;2024-02-23T10:04:42;8.10;80.30
77741;DHT22;66919;51.006;4.630;2024-02-23T10:07:14;8.20;79.00
77741;DHT22;66919;51.006;4.630;2024-02-23T10:09:41;8.20;78.40
77741;DHT22;66919;51.006;4.630;2024-02-23T10:12:07;8.40;78.20
77741;DHT22;66919;51.006;4.630;2024-02-23T10:14:33;8.30;78.70
77741;DHT22;66919;51.006;4.630;2024-02-23T10:16:59;8.20;79.90
77741;DHT22;66919;51.006;4.630;2024-02-23T10:19:25;8.20;79.30
77741;DHT22;66919;51.006;4.630;2024-02-23T10:21:55;8.30;78.10
77741;DHT22;66919;51.006;4.630;2024-02-23T10:24:23;8.40;77.70
77741;DHT22;66919;51.006;4.630;2024-02-23T10:26:51;8.50;76.60
77741;DHT22;66919;51.006;4.630;2024-02-23T10:29:16;8.60;76.50
77741;DHT22;66919;51.006;4.630;2024-02-23T10:31:43;8.60;76.50
77741;DHT22;66919;51.006;4.630;2024-02-23T10:34:14;8.70;76.30
77741;DHT22;66919;51.006;4.630;2024-02-23T10:36:41;8.60;75.50
77741;DHT22;66919;51.006;4.630;2024-02-23T10:39:08;8.60;75.30
77741;DHT22;66919;51.006;4.630;2024-02-23T10:41:35;8.50;77.00
77741;DHT22;66919;51.006;4.630;2024-02-23T10:44:03;8.70;75.30
77741;DHT22;66919;51.006;4.630;2024-02-23T10:46:33;9.30;74.10
77741;DHT22;66919;51.006;4.630;2024-02-23T10:48:59;9.60;71.50
77741;DHT22;66919;51.006;4.630;2024-02-23T10:51:26;9.70;71.30
77741;DHT22;66919;51.006;4.630;2024-02-23T10:53:52;9.80;71.20
77741;DHT22;66919;51.006;4.630;2024-02-23T10:56:18;9.70;71.60
77741;DHT22;66919;51.006;4.630;2024-02-23T10:58:45;9.80;70.30
77741;DHT22;66919;51.006;4.630;2024-02-23T11:01:12;9.70;71.00
77741;DHT22;66919;51.006;4.630;2024-02-23T11:03:42;9.40;71.70
77741;DHT22;66919;51.006;4.630;2024-02-23T11:06:09;9.20;72.50
77741;DHT22;66919;51.006;4.630;2024-02-23T11:08:36;9.20;72.10
77741;DHT22;66919;51.006;4.630;2024-02-23T11:11:11;9.10;73.30
77741;DHT22;66919;51.006;4.630;2024-02-23T11:13:38;9.00;74.00
77741;DHT22;66919;51.006;4.630;2024-02-23T11:16:05;9.00;72.40
77741;DHT22;66919;51.006;4.630;2024-02-23T11:18:31;9.20;72.40
77741;DHT22;66919;51.006;4.630;2024-02-23T11:21:02;9.20;71.80
77741;DHT22;66919;51.006;4.630;2024-02-23T11:23:41;9.30;71.90
77741;DHT22;66919;51.006;4.630;2024-02-23T11:26:12;9.30;71.70
77741;DHT22;66919;51.006;4.630;2024-02-23T11:28:48;9.30;70.80
77741;DHT22;66919;51.006;4.630;2024-02-23T11:31:24;9.40;71.30
77741;DHT22;66919;51.006;4.630;2024-02-23T11:33:54;9.60;70.80
77741;DHT22;66919;51.006;4.630;2024-02-23T11:36:24;9.50;70.70
77741;DHT22;66919;51.006;4.630;2024-02-23T11:38:52;9.70;70.90
77741;DHT22;66919;51.006;4.630;2024-02-23T11:41:21;9.90;70.30
77741;DHT22;66919;51.006;4.630;2024-02-23T11:43:47;10.10;68.30
77741;DHT22;66919;51.006;4.630;2024-02-23T11:46:15;10.00;69.40
77741;DHT22;66919;51.006;4.630;2024-02-23T11:48:41;9.90;68.60
77741;DHT22;66919;51.006;4.630;2024-02-23T11:51:07;9.90;68.20
77741;DHT22;66919;51.006;4.630;2024-02-23T11:53:36;9.50;70.40
77741;DHT22;66919;51.006;4.630;2024-02-23T11:56:02;9.40;71.50
77741;DHT22;66919;51.006;4.630;2024-02-23T11:58:29;9.40;71.10
77741;DHT22;66919;51.006;4.630;2024-02-23T12:00:54;9.30;71.40
77741;DHT22;66919;51.006;4.630;2024-02-23T12:03:20;9.20;71.00
77741;DHT22;66919;51.006;4.630;2024-02-23T12:05:49;8.90;73.10
77741;DHT22;66919;51.006;4.630;2024-02-23T12:08:15;8.90;73.90
77741;DHT22;66919;51.006;4.630;2024-02-23T12:10:41;9.00;73.50
77741;DHT22;66919;51.006;4.630;2024-02-23T12:13:07;9.00;72.40
77741;DHT22;66919;51.006;4.630;2024-02-23T12:15:33;9.00;72.10
77741;DHT22;66919;51.006;4.630;2024-02-23T12:17:58;9.00;72.60
77741;DHT22;66919;51.006;4.630;2024-02-23T12:20:25;9.00;72.00
77741;DHT22;66919;51.006;4.630;2024-02-23T12:22:54;9.00;71.70
77741;DHT22;66919;51.006;4.630;2024-02-23T12:25:21;9.00;72.30
77741;DHT22;66919;51.006;4.630;2024-02-23T12:27:54;9.10;71.20
77741;DHT22;66919;51.006;4.630;2024-02-23T12:30:20;9.00;72.10
77741;DHT22;66919;51.006;4.630;2024-02-23T12:32:45;9.10;70.70
77741;DHT22;66919;51.006;4.630;2024-02-23T12:35:11;9.10;71.90
77741;DHT22;66919;51.006;4.630;2024-02-23T12:37:37;9.20;71.90
77741;DHT22;66919;51.006;4.630;2024-02-23T12:40:03;9.30;71.80
77741;DHT22;66919;51.006;4.630;2024-02-23T12:42:29;9.40;70.20
77741;DHT22;66919;51.006;4.630;2024-02-23T12:44:54;9.70;68.70
77741;DHT22;66919;51.006;4.630;2024-02-23T12:47:20;9.80;68.00
77741;DHT22;66919;51.006;4.630;2024-02-23T12:49:45;10.10;67.10
77741;DHT22;66919;51.006;4.630;2024-02-23T12:52:12;10.40;65.40
77741;DHT22;66919;51.006;4.630;2024-02-23T12:54:39;10.50;64.80
77741;DHT22;66919;51.006;4.630;2024-02-23T12:57:04;10.40;65.50
77741;DHT22;66919;51.006;4.630;2024-02-23T12:59:30;10.60;66.00
77741;DHT22;66919;51.006;4.630;2024-02-23T13:01:56;10.80;64.30
77741;DHT22;66919;51.006;4.630;2024-02-23T13:04:22;10.90;63.80
77741;DHT22;66919;51.006;4.630;2024-02-23T13:06:48;11.20;62.70
77741;DHT22;66919;51.006;4.630;2024-02-23T13:09:13;11.60;61.30
77741;DHT22;66919;51.006;4.630;2024-02-23T13:11:40;11.40;62.50
77741;DHT22;66919;51.006;4.630;2024-02-23T13:14:06;11.20;61.90
77741;DHT22;66919;51.006;4.630;2024-02-23T13:16:31;11.10;63.00
77741;DHT22;66919;51.006;4.630;2024-02-23T13:18:57;10.90;63.90
77741;DHT22;66919;51.006;4.630;2024-02-23T13:21:23;11.10;62.70
77741;DHT22;66919;51.006;4.630;2024-02-23T13:23:49;11.50;61.20
77741;DHT22;66919;51.006;4.630;2024-02-23T13:26:15;11.50;62.10
77741;DHT22;66919;51.006;4.630;2024-02-23T13:28:44;11.50;60.50
77741;DHT22;66919;51.006;4.630;2024-02-23T13:31:10;11.20;61.30
77741;DHT22;66919;51.006;4.630;2024-02-23T13:33:35;10.90;63.10
77741;DHT22;66919;51.006;4.630;2024-02-23T13:36:01;10.80;62.60
77741;DHT22;66919;51.006;4.630;2024-02-23T13:38:27;10.30;64.00
77741;DHT22;66919;51.006;4.630;2024-02-23T13:40:53;10.00;65.70
77741;DHT22;66919;51.006;4.630;2024-02-23T13:43:18;9.70;66.30
77741;DHT22;66919;51.006;4.630;2024-02-23T13:45:51;9.80;66.40
77741;DHT22;66919;51.006;4.630;2024-02-23T13:48:17;9.80;66.70
77741;DHT22;66919;51.006;4.630;2024-02-23T13:50:46;9.80;65.60
77741;DHT22;66919;51.006;4.630;2024-02-23T13:53:13;10.00;66.10
77741;DHT22;66919;51.006;4.630;2024-02-23T13:55:39;10.10;66.40
77741;DHT22;66919;51.006;4.630;2024-02-23T13:58:05;10.50;64.50
77741;DHT22;66919;51.006;4.630;2024-02-23T14:00:30;10.30;65.00
77741;DHT22;66919;51.006;4.630;2024-02-23T14:02:56;10.20;65.10
77741;DHT22;66919;51.006;4.630;2024-02-23T14:05:22;10.20;64.70
77741;DHT22;66919;51.006;4.630;2024-02-23T14:07:51;10.10;64.70
77741;DHT22;66919;51.006;4.630;2024-02-23T14:10:17;10.30;64.30
77741;DHT22;66919;51.006;4.630;2024-02-23T14:12:42;10.40;63.40
77741;DHT22;66919;51.006;4.630;2024-02-23T14:15:09;10.20;63.50
77741;DHT22;66919;51.006;4.630;2024-02-23T14:17:36;10.10;64.50
77741;DHT22;66919;51.006;4.630;2024-02-23T14:20:02;10.00;63.80
77741;DHT22;66919;51.006;4.630;2024-02-23T14:22:28;10.10;64.30
77741;DHT22;66919;51.006;4.630;2024-02-23T14:24:54;10.10;65.30
77741;DHT22;66919;51.006;4.630;2024-02-23T14:27:20;10.50;63.50
77741;DHT22;66919;51.006;4.630;2024-02-23T14:29:46;10.60;63.60
77741;DHT22;66919;51.006;4.630;2024-02-23T14:32:18;10.90;62.10
77741;DHT22;66919;51.006;4.630;2024-02-23T14:34:44;11.30;60.40
77741;DHT22;66919;51.006;4.630;2024-02-23T14:37:09;11.10;59.50
77741;DHT22;66919;51.006;4.630;2024-02-23T14:39:35;11.00;58.20
77741;DHT22;66919;51.006;4.630;2024-02-23T14:42:01;10.90;59.70
77741;DHT22;66919;51.006;4.630;2024-02-23T14:44:26;10.90;60.20
77741;DHT22;66919;51.006;4.630;2024-02-23T14:46:52;10.80;60.90
77741;DHT22;66919;51.006;4.630;2024-02-23T14:49:18;10.90;61.00
77741;DHT22;66919;51.006;4.630;2024-02-23T14:51:44;10.90;61.60
77741;DHT22;66919;51.006;4.630;2024-02-23T14:54:11;11.10;60.40
77741;DHT22;66919;51.006;4.630;2024-02-23T14:56:37;11.30;59.20
77741;DHT22;66919;51.006;4.630;2024-02-23T14:59:03;11.10;59.00
77741;DHT22;66919;51.006;4.630;2024-02-23T15:01:29;10.80;59.20
77741;DHT22;66919;51.006;4.630;2024-02-23T15:03:54;10.50;60.10
77741;DHT22;66919;51.006;4.630;2024-02-23T15:06:20;10.30;61.00
77741;DHT22;66919;51.006;4.630;2024-02-23T15:08:48;10.30;61.40
77741;DHT22;66919;51.006;4.630;2024-02-23T15:11:13;10.20;62.20
77741;DHT22;66919;51.006;4.630;2024-02-23T15:13:39;9.90;62.90
77741;DHT22;66919;51.006;4.630;2024-02-23T15:16:06;10.10;63.10
77741;DHT22;66919;51.006;4.630;2024-02-23T15:18:31;10.30;61.80
77741;DHT22;66919;51.006;4.630;2024-02-23T15:20:57;10.10;62.90
77741;DHT22;66919;51.006;4.630;2024-02-23T15:23:23;10.10;61.80
77741;DHT22;66919;51.006;4.630;2024-02-23T15:25:50;10.20;61.00
77741;DHT22;66919;51.006;4.630;2024-02-23T15:28:15;10.10;61.70
77741;DHT22;66919;51.006;4.630;2024-02-23T15:30:51;10.10;61.60
77741;DHT22;66919;51.006;4.630;2024-02-23T15:33:20;10.10;61.00
77741;DHT22;66919;51.006;4.630;2024-02-23T15:35:46;9.90;61.70